createdAt,value
2023-03-26T00:01:36.566Z,3.28
2023-03-26T00:04:05.829Z,4.05
2023-03-26T00:06:38.736Z,4.28
2023-03-26T00:09:08.953Z,3.03
2023-03-26T00:11:36.045Z,3.30
2023-03-26T00:14:03.845Z,3.47
2023-03-26T00:16:32.220Z,3.05
2023-03-26T00:19:00.236Z,3.15
2023-03-26T00:21:29.034Z,3.67
2023-03-26T00:24:07.860Z,3.13
2023-03-26T00:26:35.976Z,3.08
2023-03-26T00:29:04.172Z,3.45
2023-03-26T00:31:31.593Z,3.08
2023-03-26T00:33:58.533Z,3.63
2023-03-26T00:36:26.932Z,3.08
2023-03-26T00:38:54.522Z,3.55
2023-03-26T00:41:25.637Z,3.47
2023-03-26T00:43:58.224Z,3.60
2023-03-26T00:46:26.851Z,3.70
2023-03-26T00:48:54.126Z,3.35
2023-03-26T00:51:21.951Z,3.25
2023-03-26T00:53:50.676Z,3.10
2023-03-26T00:56:17.730Z,3.38
2023-03-26T00:58:45.190Z,3.45
2023-03-26T01:01:16.312Z,2.80
2023-03-26T01:03:57.117Z,3.97
2023-03-26T01:06:34.317Z,3.28
2023-03-26T01:09:11.930Z,2.70
2023-03-26T01:11:38.787Z,3.03
2023-03-26T01:14:11.288Z,3.83
2023-03-26T01:16:52.366Z,2.72
2023-03-26T01:19:45.959Z,3.28
2023-03-26T01:22:21.768Z,2.95
2023-03-26T01:24:53.821Z,4.10
2023-03-26T01:27:27.246Z,3.10
2023-03-26T01:30:05.212Z,3.33
2023-03-26T01:33:01.566Z,3.35
2023-03-26T01:35:58.904Z,3.65
2023-03-26T01:38:37.520Z,3.75
2023-03-26T01:41:14.391Z,3.63
2023-03-26T01:43:59.030Z,3.67
2023-03-26T01:46:27.247Z,3.08
2023-03-26T01:48:54.233Z,3.30
2023-03-26T01:51:35.264Z,3.78
2023-03-26T01:54:05.131Z,3.15
2023-03-26T01:56:53.651Z,3.47
2023-03-26T01:59:57.261Z,4.18
2023-03-26T02:02:34.142Z,3.15
2023-03-26T02:05:10.979Z,3.20
2023-03-26T02:07:44.875Z,3.05
2023-03-26T02:10:21.293Z,3.03
2023-03-26T02:12:48.198Z,3.97
2023-03-26T02:15:15.090Z,4.40
2023-03-26T02:17:42.076Z,3.70
2023-03-26T02:20:14.536Z,3.50
2023-03-26T02:22:46.117Z,3.30
2023-03-26T02:25:18.842Z,3.30
2023-03-26T02:27:46.347Z,4.60
2023-03-26T02:30:19.816Z,3.22
2023-03-26T02:32:46.854Z,3.80
2023-03-26T02:35:13.878Z,3.45
2023-03-26T02:37:42.297Z,3.35
2023-03-26T02:40:11.883Z,3.55
2023-03-26T02:42:39.362Z,3.55
2023-03-26T02:45:07.660Z,3.90
2023-03-26T02:47:34.748Z,3.58
2023-03-26T02:50:03.743Z,3.80
2023-03-26T02:52:31.382Z,4.90
2023-03-26T02:54:58.314Z,4.57
2023-03-26T02:57:26.117Z,4.00
2023-03-26T02:59:53.053Z,4.00
2023-03-26T03:02:20.784Z,4.30
2023-03-26T03:04:47.695Z,3.63
2023-03-26T03:07:15.108Z,3.38
2023-03-26T03:09:42.078Z,4.07
2023-03-26T03:12:08.959Z,4.05
2023-03-26T03:14:35.957Z,3.25
2023-03-26T03:17:02.884Z,3.25
2023-03-26T03:19:29.781Z,3.38
2023-03-26T03:21:56.697Z,3.42
2023-03-26T03:24:23.576Z,3.47
2023-03-26T03:26:50.554Z,3.55
2023-03-26T03:29:17.517Z,3.45
2023-03-26T03:31:44.411Z,3.70
2023-03-26T03:34:11.613Z,3.15
2023-03-26T03:36:38.705Z,3.78
2023-03-26T03:39:05.667Z,3.63
2023-03-26T03:41:32.565Z,3.35
2023-03-26T03:44:01.735Z,2.95
2023-03-26T03:46:28.890Z,3.33
2023-03-26T03:48:56.143Z,3.03
2023-03-26T03:51:22.985Z,3.47
2023-03-26T03:53:50.448Z,3.47
2023-03-26T03:56:19.365Z,3.75
2023-03-26T03:58:46.465Z,3.50
2023-03-26T04:01:13.652Z,3.05
2023-03-26T04:03:40.714Z,3.20
2023-03-26T04:06:11.174Z,2.90
2023-03-26T04:08:38.266Z,3.25
2023-03-26T04:11:05.937Z,2.78
2023-03-26T04:13:32.818Z,2.55
2023-03-26T04:16:00.099Z,2.63
2023-03-26T04:18:27.901Z,3.28
2023-03-26T04:20:55.876Z,2.75
2023-03-26T04:23:23.345Z,3.05
2023-03-26T04:25:54.183Z,2.78
2023-03-26T04:28:48.609Z,2.60
2023-03-26T04:31:24.840Z,3.03
2023-03-26T04:34:00.217Z,2.60
2023-03-26T04:36:32.295Z,3.08
2023-03-26T04:39:03.011Z,2.80
2023-03-26T04:41:30.360Z,3.38
2023-03-26T04:43:57.117Z,2.88
2023-03-26T04:46:24.171Z,3.42
2023-03-26T04:48:52.445Z,3.03
2023-03-26T04:51:24.034Z,3.58
2023-03-26T04:53:59.561Z,2.75
2023-03-26T04:56:40.791Z,3.55
2023-03-26T04:59:14.989Z,3.17
2023-03-26T05:01:46.072Z,3.05
2023-03-26T05:04:13.743Z,2.90
2023-03-26T05:06:42.159Z,2.80
2023-03-26T05:09:10.796Z,3.60
2023-03-26T05:11:37.687Z,2.63
2023-03-26T05:14:04.587Z,3.13
2023-03-26T05:16:31.980Z,3.40
2023-03-26T05:18:58.882Z,3.05
2023-03-26T05:21:25.929Z,3.33
2023-03-26T05:23:52.819Z,3.20
2023-03-26T05:26:20.029Z,3.85
2023-03-26T05:28:46.844Z,2.83
2023-03-26T05:31:15.637Z,2.92
2023-03-26T05:33:42.786Z,2.92
2023-03-26T05:36:24.152Z,2.78
2023-03-26T05:38:52.499Z,3.10
2023-03-26T05:41:19.400Z,2.58
2023-03-26T05:43:47.916Z,3.70
2023-03-26T05:46:15.822Z,2.92
2023-03-26T05:48:42.869Z,2.92
2023-03-26T05:51:09.892Z,2.67
2023-03-26T05:53:36.826Z,3.22
2023-03-26T05:56:04.417Z,3.13
2023-03-26T05:58:33.426Z,3.50
2023-03-26T06:01:06.055Z,3.40
2023-03-26T06:03:35.504Z,3.03
2023-03-26T06:06:04.123Z,2.45
2023-03-26T06:08:31.395Z,2.75
2023-03-26T06:11:00.592Z,2.97
2023-03-26T06:13:27.730Z,3.90
2023-03-26T06:15:54.683Z,3.53
2023-03-26T06:18:21.761Z,3.17
2023-03-26T06:20:48.640Z,3.90
2023-03-26T06:23:15.467Z,3.25
2023-03-26T06:25:44.405Z,3.53
2023-03-26T06:28:11.816Z,3.70
2023-03-26T06:30:39.188Z,3.72
2023-03-26T06:33:06.764Z,3.33
2023-03-26T06:35:33.648Z,3.10
2023-03-26T06:38:00.921Z,3.25
2023-03-26T06:40:27.811Z,3.65
2023-03-26T06:43:07.834Z,3.40
2023-03-26T06:45:37.716Z,3.40
2023-03-26T06:48:05.130Z,3.50
2023-03-26T06:50:33.083Z,4.25
2023-03-26T06:53:00.465Z,4.03
2023-03-26T06:55:27.371Z,4.32
2023-03-26T06:57:57.051Z,3.03
2023-03-26T07:00:24.359Z,3.03
2023-03-26T07:02:51.303Z,3.00
2023-03-26T07:05:18.328Z,3.42
2023-03-26T07:07:46.696Z,3.63
2023-03-26T07:10:14.511Z,2.78
2023-03-26T07:12:42.563Z,3.53
2023-03-26T07:15:10.524Z,3.10
2023-03-26T07:17:37.789Z,3.47
2023-03-26T07:20:06.665Z,3.63
2023-03-26T07:22:33.741Z,3.22
2023-03-26T07:25:01.316Z,3.13
2023-03-26T07:28:00.396Z,3.03
2023-03-26T07:30:58.651Z,2.83
2023-03-26T07:33:38.646Z,2.67
2023-03-26T07:36:38.207Z,2.80
2023-03-26T07:39:28.091Z,2.45
2023-03-26T07:42:10.036Z,2.95
2023-03-26T07:44:45.624Z,3.22
2023-03-26T07:47:33.812Z,2.63
2023-03-26T07:50:01.089Z,3.25
2023-03-26T07:52:28.428Z,3.22
2023-03-26T07:54:55.978Z,3.03
2023-03-26T07:57:41.003Z,3.78
2023-03-26T08:00:12.412Z,3.53
2023-03-26T08:02:48.806Z,3.25
2023-03-26T08:05:30.493Z,3.30
2023-03-26T08:08:11.640Z,3.33
2023-03-26T08:10:56.497Z,3.33
2023-03-26T08:13:32.616Z,2.67
2023-03-26T08:16:15.745Z,2.60
2023-03-26T08:19:10.998Z,2.40
2023-03-26T08:21:38.192Z,2.40
2023-03-26T08:24:36.715Z,2.30
2023-03-26T08:27:22.875Z,2.30
2023-03-26T08:30:22.598Z,1.95
2023-03-26T08:33:12.796Z,2.80
2023-03-26T08:35:42.649Z,2.70
2023-03-26T08:38:11.000Z,2.83
2023-03-26T08:40:59.543Z,2.05
2023-03-26T08:43:41.588Z,2.58
2023-03-26T08:46:25.173Z,2.78
2023-03-26T08:49:01.863Z,2.03
2023-03-26T08:51:55.817Z,2.05
2023-03-26T08:54:44.747Z,2.00
2023-03-26T08:57:47.195Z,2.25
2023-03-26T09:00:31.516Z,2.25
2023-03-26T09:03:39.314Z,2.45
2023-03-26T09:06:31.832Z,3.00
2023-03-26T09:09:26.601Z,3.03
2023-03-26T09:14:34.876Z,2.22
2023-03-26T09:17:39.707Z,2.63
2023-03-26T09:20:09.608Z,2.55
2023-03-26T09:22:42.311Z,2.22
2023-03-26T09:25:17.997Z,2.10
2023-03-26T09:27:50.860Z,2.20
2023-03-26T09:30:39.426Z,2.20
2023-03-26T09:33:21.507Z,1.40
2023-03-26T09:35:55.172Z,2.15
2023-03-26T09:38:42.267Z,1.90
2023-03-26T09:41:09.378Z,1.60
2023-03-26T09:43:53.099Z,1.92
2023-03-26T09:46:35.550Z,2.67
2023-03-26T09:49:02.304Z,2.30
2023-03-26T09:51:40.773Z,2.22
2023-03-26T09:54:28.746Z,2.10
2023-03-26T09:57:37.108Z,1.88
2023-03-26T10:00:40.975Z,1.73
2023-03-26T10:03:26.992Z,1.60
2023-03-26T10:06:13.926Z,2.00
2023-03-26T10:09:13.200Z,1.83
2023-03-26T10:11:52.255Z,1.77
2023-03-26T10:14:22.948Z,1.50
2023-03-26T10:17:01.535Z,1.50
2023-03-26T10:20:09.758Z,1.60
2023-03-26T10:23:01.444Z,1.77
2023-03-26T10:25:55.490Z,1.77
2023-03-26T10:28:53.762Z,2.40
2023-03-26T10:31:32.391Z,3.08
2023-03-26T10:34:29.376Z,3.28
2023-03-26T10:36:59.751Z,1.60
2023-03-26T10:40:06.072Z,1.38
2023-03-26T10:43:06.649Z,1.70
2023-03-26T10:45:39.204Z,1.42
2023-03-26T10:48:46.943Z,4.53
2023-03-26T10:51:41.742Z,1.73
2023-03-26T10:56:49.588Z,1.10
2023-03-26T10:59:17.906Z,1.13
2023-03-26T11:02:17.001Z,1.20
2023-03-26T11:04:54.696Z,0.90
2023-03-26T11:07:39.128Z,0.80
2023-03-26T11:13:04.978Z,0.90
2023-03-26T11:15:39.467Z,0.73
2023-03-26T11:18:33.636Z,0.77
2023-03-26T11:21:19.970Z,0.70
2023-03-26T11:24:06.444Z,0.70
2023-03-26T11:27:14.952Z,0.77
2023-03-26T11:29:52.018Z,0.90
2023-03-26T11:32:24.446Z,0.82
2023-03-26T11:35:02.514Z,0.70
2023-03-26T11:37:54.035Z,1.00
2023-03-26T11:40:27.986Z,0.90
2023-03-26T11:43:01.252Z,2.00
2023-03-26T11:45:32.258Z,0.80
2023-03-26T11:48:31.640Z,0.50
2023-03-26T11:51:11.757Z,0.55
2023-03-26T11:53:39.483Z,0.50
2023-03-26T11:56:18.435Z,0.60
2023-03-26T11:58:54.708Z,0.45
2023-03-26T12:01:50.669Z,0.52
2023-03-26T12:04:25.120Z,0.50
2023-03-26T12:07:14.569Z,0.60
2023-03-26T12:09:57.011Z,0.43
2023-03-26T12:12:47.176Z,0.50
2023-03-26T12:15:15.973Z,7.47
2023-03-26T12:17:43.386Z,0.40
2023-03-26T12:20:36.112Z,0.50
2023-03-26T12:23:05.157Z,0.43
2023-03-26T12:25:34.545Z,1.10
2023-03-26T12:28:05.107Z,0.73
2023-03-26T12:30:34.970Z,0.60
2023-03-26T12:33:07.577Z,0.50
2023-03-26T12:35:35.992Z,0.80
2023-03-26T12:38:22.342Z,0.75
2023-03-26T12:41:04.364Z,0.50
2023-03-26T12:44:56.099Z,0.40
2023-03-26T12:47:55.646Z,0.50
2023-03-26T12:49:22.184Z,0.60
2023-03-26T12:51:56.993Z,0.43
2023-03-26T12:55:17.808Z,0.40
2023-03-26T12:58:51.334Z,0.40
2023-03-26T13:01:42.136Z,0.43
2023-03-26T13:04:27.557Z,0.50
2023-03-26T13:07:01.710Z,0.35
2023-03-26T13:10:08.647Z,0.32
2023-03-26T13:12:47.230Z,0.50
2023-03-26T13:15:24.271Z,0.40
2023-03-26T13:18:27.408Z,0.70
2023-03-26T13:21:22.119Z,1.55
2023-03-26T13:26:41.790Z,0.60
2023-03-26T13:29:17.695Z,0.68
2023-03-26T13:31:52.280Z,0.60
2023-03-26T13:34:54.057Z,0.80
2023-03-26T13:37:37.533Z,0.50
2023-03-26T13:40:10.488Z,0.75
2023-03-26T13:43:04.084Z,0.70
2023-03-26T13:45:42.794Z,0.80
2023-03-26T13:48:24.387Z,0.63
2023-03-26T13:51:11.574Z,0.60
2023-03-26T13:53:46.364Z,1.30
2023-03-26T13:56:18.573Z,1.45
2023-03-26T13:58:54.230Z,1.13
2023-03-26T14:01:34.903Z,2.40
2023-03-26T14:04:18.868Z,1.45
2023-03-26T14:07:21.192Z,0.60
2023-03-26T14:09:52.303Z,0.90
2023-03-26T14:12:40.581Z,0.88
2023-03-26T14:15:17.767Z,0.75
2023-03-26T14:17:52.658Z,1.15
2023-03-26T14:20:57.112Z,1.23
2023-03-26T14:23:34.355Z,1.10
2023-03-26T14:26:13.936Z,1.75
2023-03-26T14:29:18.840Z,1.23
2023-03-26T14:32:06.520Z,0.90
2023-03-26T14:34:59.075Z,0.90
2023-03-26T14:37:37.910Z,1.30
2023-03-26T14:40:16.965Z,0.90
2023-03-26T14:42:44.040Z,1.00
2023-03-26T14:45:44.875Z,1.15
2023-03-26T14:48:34.678Z,1.08
2023-03-26T14:51:17.683Z,1.05
2023-03-26T14:53:55.490Z,0.80
2023-03-26T14:56:40.923Z,0.95
2023-03-26T14:59:14.000Z,1.05
2023-03-26T15:02:01.710Z,1.25
2023-03-26T15:04:40.605Z,1.10
2023-03-26T15:07:31.721Z,1.20
2023-03-26T15:10:17.815Z,1.45
2023-03-26T15:13:12.020Z,1.02
2023-03-26T15:15:54.070Z,1.02
2023-03-26T15:18:56.952Z,1.30
2023-03-26T15:21:40.721Z,1.33
2023-03-26T15:24:19.397Z,2.33
2023-03-26T15:27:11.309Z,2.88
2023-03-26T15:29:40.987Z,2.65
2023-03-26T15:32:16.680Z,2.88
2023-03-26T15:35:09.874Z,3.42
2023-03-26T15:38:09.229Z,3.25
2023-03-26T15:41:11.241Z,2.78
2023-03-26T15:44:22.528Z,2.13
2023-03-26T15:47:12.858Z,2.53
2023-03-26T15:49:50.034Z,4.65
2023-03-26T15:52:16.895Z,3.42
2023-03-26T15:54:57.489Z,2.70
2023-03-26T15:57:31.296Z,3.13
2023-03-26T16:00:26.010Z,3.55
2023-03-26T16:05:53.520Z,3.70
2023-03-26T16:08:46.872Z,3.70
2023-03-26T16:11:14.594Z,5.55
2023-03-26T16:14:17.460Z,6.38
2023-03-26T16:16:56.310Z,6.30
2023-03-26T16:19:23.167Z,6.30
2023-03-26T16:21:57.752Z,4.90
2023-03-26T16:24:28.183Z,4.95
2023-03-26T16:27:26.177Z,4.63
2023-03-26T16:30:02.210Z,4.97
2023-03-26T16:32:34.291Z,4.50
2023-03-26T16:35:36.021Z,3.60
2023-03-26T16:38:18.564Z,3.05
2023-03-26T16:41:16.453Z,3.90
2023-03-26T16:44:00.253Z,3.42
2023-03-26T16:46:56.132Z,2.85
2023-03-26T16:49:42.688Z,2.80
2023-03-26T16:52:31.680Z,2.40
2023-03-26T16:55:05.342Z,1.98
2023-03-26T16:57:35.893Z,1.90
2023-03-26T17:00:05.253Z,1.90
2023-03-26T17:02:37.071Z,2.10
2023-03-26T17:05:20.279Z,5.15
2023-03-26T17:07:55.990Z,3.67
2023-03-26T17:10:32.699Z,3.13
2023-03-26T17:13:08.310Z,2.80
2023-03-26T17:15:48.504Z,2.55
2023-03-26T17:18:36.459Z,2.25
2023-03-26T17:21:45.891Z,2.45
2023-03-26T17:24:42.940Z,1.88
2023-03-26T17:27:35.120Z,2.25
2023-03-26T17:30:22.138Z,2.47
2023-03-26T17:33:03.931Z,2.97
2023-03-26T17:35:36.931Z,2.53
2023-03-26T17:38:09.390Z,2.58
2023-03-26T17:40:55.851Z,2.90
2023-03-26T17:43:40.455Z,2.92
2023-03-26T17:46:48.319Z,3.25
2023-03-26T17:49:23.565Z,3.13
2023-03-26T17:52:17.084Z,3.08
2023-03-26T17:54:55.225Z,2.53
2023-03-26T17:57:43.007Z,2.55
2023-03-26T18:00:23.726Z,3.20
2023-03-26T18:02:56.415Z,2.80
2023-03-26T18:05:27.429Z,2.90
2023-03-26T18:08:39.995Z,3.28
2023-03-26T18:11:25.839Z,3.00
2023-03-26T18:14:17.306Z,2.60
2023-03-26T18:16:49.507Z,1.60
2023-03-26T18:19:19.532Z,2.45
2023-03-26T18:21:52.439Z,2.58
2023-03-26T18:24:40.587Z,2.40
2023-03-26T18:27:22.606Z,2.33
2023-03-26T18:30:01.971Z,2.67
2023-03-26T18:32:33.929Z,3.28
2023-03-26T18:35:14.676Z,4.07
2023-03-26T18:37:44.342Z,4.55
2023-03-26T18:40:19.364Z,3.00
2023-03-26T18:42:51.558Z,2.67
2023-03-26T18:45:33.710Z,2.78
2023-03-26T18:48:18.119Z,3.00
2023-03-26T18:50:47.350Z,2.40
2023-03-26T18:53:21.151Z,2.33
2023-03-26T18:55:51.740Z,2.40
2023-03-26T18:58:37.303Z,3.13
2023-03-26T19:01:14.355Z,3.00
2023-03-26T19:03:50.963Z,4.85
2023-03-26T19:06:18.401Z,4.43
2023-03-26T19:08:46.872Z,4.72
2023-03-26T19:11:17.445Z,5.05
2023-03-26T19:13:49.827Z,5.47
2023-03-26T19:16:29.922Z,5.38
2023-03-26T19:19:00.150Z,6.68
2023-03-26T19:21:27.263Z,6.80
2023-03-26T19:23:55.480Z,7.32
2023-03-26T19:26:22.554Z,8.23
2023-03-26T19:28:53.449Z,7.20
2023-03-26T19:31:32.327Z,8.85
2023-03-26T19:34:00.783Z,8.40
2023-03-26T19:36:31.599Z,7.07
2023-03-26T19:39:02.197Z,6.18
2023-03-26T19:41:38.641Z,6.20
2023-03-26T19:44:20.878Z,6.68
2023-03-26T19:46:54.014Z,6.25
2023-03-26T19:49:41.410Z,6.60
2023-03-26T19:52:17.580Z,5.28
2023-03-26T19:55:13.521Z,5.80
2023-03-26T19:57:40.378Z,5.75
2023-03-26T20:00:14.517Z,4.72
2023-03-26T20:02:42.596Z,6.28
2023-03-26T20:05:19.274Z,5.03
2023-03-26T20:07:46.149Z,4.97
2023-03-26T20:10:13.033Z,6.05
2023-03-26T20:12:39.897Z,5.47
2023-03-26T20:15:28.672Z,5.25
2023-03-26T20:17:56.009Z,5.65
2023-03-26T20:20:24.916Z,4.97
2023-03-26T20:22:54.108Z,5.65
2023-03-26T20:25:30.991Z,6.60
2023-03-26T20:27:59.419Z,5.25
2023-03-26T20:30:37.263Z,5.50
2023-03-26T20:33:12.649Z,6.18
2023-03-26T20:35:40.889Z,6.00
2023-03-26T20:38:09.921Z,5.45
2023-03-26T20:40:37.283Z,5.63
2023-03-26T20:43:06.701Z,4.95
2023-03-26T20:45:33.659Z,4.75
2023-03-26T20:48:02.889Z,4.53
2023-03-26T20:50:31.658Z,4.65
2023-03-26T20:53:00.814Z,4.00
2023-03-26T20:55:28.483Z,4.30
2023-03-26T20:57:55.448Z,4.03
2023-03-26T21:00:23.690Z,4.88
2023-03-26T21:02:53.450Z,4.20
2023-03-26T21:05:25.113Z,4.38
2023-03-26T21:07:57.524Z,4.68
2023-03-26T21:10:29.836Z,3.58
2023-03-26T21:13:13.138Z,5.20
2023-03-26T21:15:40.656Z,3.65
2023-03-26T21:18:08.024Z,3.63
2023-03-26T21:20:37.338Z,3.83
2023-03-26T21:23:22.847Z,3.85
2023-03-26T21:26:02.951Z,3.90
2023-03-26T21:28:51.127Z,3.40
2023-03-26T21:31:24.320Z,3.85
2023-03-26T21:33:51.989Z,3.40
2023-03-26T21:36:19.980Z,4.07
2023-03-26T21:38:47.391Z,3.85
2023-03-26T21:41:23.452Z,3.28
2023-03-26T21:43:51.300Z,3.97
2023-03-26T21:46:18.593Z,3.50
2023-03-26T21:48:45.757Z,3.90
2023-03-26T21:51:19.277Z,3.00
2023-03-26T21:53:46.650Z,3.10
2023-03-26T21:56:31.976Z,2.97
2023-03-26T21:59:15.643Z,3.90
2023-03-26T22:01:51.318Z,3.45
2023-03-26T22:04:32.361Z,3.20
2023-03-26T22:07:12.430Z,3.72
2023-03-26T22:09:39.710Z,3.35
2023-03-26T22:12:06.748Z,3.78
2023-03-26T22:14:34.557Z,2.88
2023-03-26T22:17:01.416Z,2.88
2023-03-26T22:19:30.366Z,3.00
2023-03-26T22:21:58.427Z,3.20
2023-03-26T22:24:25.264Z,3.20
2023-03-26T22:26:52.055Z,3.38
2023-03-26T22:29:19.028Z,3.65
2023-03-26T22:31:47.008Z,2.53
2023-03-26T22:34:13.964Z,3.65
2023-03-26T22:36:40.803Z,3.05
2023-03-26T22:39:07.617Z,3.28
2023-03-26T22:41:34.471Z,2.85
2023-03-26T22:44:16.746Z,3.03
2023-03-26T22:46:49.401Z,2.58
2023-03-26T22:49:17.534Z,3.30
2023-03-26T22:51:44.488Z,2.92
2023-03-26T22:54:11.360Z,3.22
2023-03-26T22:56:38.638Z,2.40
2023-03-26T22:59:05.529Z,3.05
2023-03-26T23:01:32.495Z,3.05
2023-03-26T23:03:59.442Z,2.97
2023-03-26T23:06:26.525Z,2.55
2023-03-26T23:08:54.483Z,2.90
2023-03-26T23:11:24.573Z,3.38
2023-03-26T23:14:07.317Z,2.92
2023-03-26T23:16:34.516Z,2.97
2023-03-26T23:19:01.487Z,3.00
2023-03-26T23:21:28.320Z,2.33
2023-03-26T23:23:55.201Z,3.00
2023-03-26T23:26:22.211Z,2.70
2023-03-26T23:28:51.222Z,3.28
2023-03-26T23:31:18.365Z,2.88
2023-03-26T23:33:48.056Z,2.40
2023-03-26T23:36:18.600Z,2.53
2023-03-26T23:38:48.444Z,3.08
2023-03-26T23:41:17.101Z,2.90
2023-03-26T23:43:54.778Z,2.80
2023-03-26T23:46:24.831Z,1.92
2023-03-26T23:48:52.590Z,3.03
2023-03-26T23:51:21.064Z,2.97
2023-03-26T23:53:49.605Z,2.83
2023-03-26T23:56:16.998Z,3.40
2023-03-26T23:58:44.082Z,2.72
